Time,TemperatureF,DewpointF,PressureIn,WindDirection,WindDirectionDegrees,WindSpeedMPH,WindSpeedGustMPH,Humidity,HourlyPrecipIn,Conditions,Clouds,dailyrainin,SoftwareType,DateUTC
2013-01-04 00:05:00,6.7,2.4,29.98,WNW,290,0.0,0.0,82,0.00,CLR,,0.00,WeatherDisplay:10.37,2013-01-04 05:05:00,
2013-01-04 00:10:00,6.5,2.2,29.98,WNW,290,0.0,0.0,82,0.00,CLR,,0.00,WeatherDisplay:10.37,2013-01-04 05:10:00,
2013-01-04 00:15:00,6.4,2.3,29.97,WNW,290,0.0,0.0,83,0.00,CLR,,0.00,WeatherDisplay:10.37,2013-01-04 05:15:00,
2013-01-04 00:20:00,6.2,2.1,29.97,WNW,290,0.0,0.0,83,0.00,CLR,,0.00,WeatherDisplay:10.37,2013-01-04 05:20:00,
2013-01-04 00:25:00,6.0,2.0,29.96,WNW,290,0.0,0.0,83,0.00,CLR,,0.00,WeatherDisplay:10.37,2013-01-04 05:25:00,
2013-01-04 00:30:00,5.9,1.8,29.96,WNW,290,0.0,0.0,83,0.00,CLR,,0.00,WeatherDisplay:10.37,2013-01-04 05:30:00,
2013-01-04 00:40:00,5.8,2.3,29.96,WNW,290,0.0,0.0,85,0.00,CLR,,0.00,WeatherDisplay:10.37,2013-01-04 05:40:00,
2013-01-04 00:45:00,5.8,2.3,29.96,WNW,290,0.0,0.0,85,0.00,CLR,,0.00,WeatherDisplay:10.37,2013-01-04 05:45:00,
2013-01-04 00:50:00,5.7,2.2,29.96,WNW,290,0.0,0.0,85,0.00,CLR,,0.00,WeatherDisplay:10.37,2013-01-04 05:50:00,
2013-01-04 00:55:00,5.6,2.0,29.95,WNW,290,0.0,0.0,85,0.00,CLR,,0.00,WeatherDisplay:10.37,2013-01-04 05:55:00,
2013-01-04 01:00:00,5.4,1.9,29.95,WNW,290,0.0,0.0,85,0.00,CLR,,0.00,WeatherDisplay:10.37,2013-01-04 06:00:00,
2013-01-04 01:05:00,5.3,1.8,29.95,WNW,290,0.0,0.0,85,0.00,CLR,,0.00,WeatherDisplay:10.37,2013-01-04 06:05:00,
2013-01-04 01:10:00,5.1,1.6,29.95,WNW,290,0.0,0.0,85,0.00,CLR,,0.00,WeatherDisplay:10.37,2013-01-04 06:10:00,
2013-01-04 01:15:00,5.0,1.5,29.95,WNW,290,0.0,0.0,85,0.00,CLR,,0.00,WeatherDisplay:10.37,2013-01-04 06:15:00,
2013-01-04 01:20:00,4.9,1.4,29.95,WNW,290,0.0,0.0,85,0.00,CLR,,0.00,WeatherDisplay:10.37,2013-01-04 06:20:00,
2013-01-04 01:25:00,4.7,1.4,29.95,WNW,290,0.0,0.0,86,0.00,CLR,,0.00,WeatherDisplay:10.37,2013-01-04 06:25:00,
2013-01-04 01:30:00,4.6,1.3,29.95,WNW,290,0.0,0.0,86,0.00,CLR,,0.00,WeatherDisplay:10.37,2013-01-04 06:30:00,
2013-01-04 01:40:00,4.4,1.1,29.95,WNW,290,0.0,0.0,86,0.00,CLR,,0.00,WeatherDisplay:10.37,2013-01-04 06:40:00,
2013-01-04 01:45:00,4.3,1.0,29.95,WNW,290,0.0,0.0,86,0.00,CLR,,0.00,WeatherDisplay:10.37,2013-01-04 06:45:00,
2013-01-04 01:50:00,4.2,0.9,29.95,WNW,290,0.0,0.0,86,0.00,CLR,,0.00,WeatherDisplay:10.37,2013-01-04 06:50:00,
2013-01-04 01:55:00,4.1,1.1,29.95,WNW,290,0.0,0.0,87,0.00,CLR,,0.00,WeatherDisplay:10.37,2013-01-04 06:55:00,
2013-01-04 02:00:00,4.0,1.0,29.95,WNW,290,0.0,0.0,87,0.00,CLR,,0.00,WeatherDisplay:10.37,2013-01-04 07:00:00,
2013-01-04 02:10:00,3.9,0.9,29.95,WNW,290,0.0,0.0,87,0.00,CLR,,0.00,WeatherDisplay:10.37,2013-01-04 07:10:00,
2013-01-04 02:15:00,3.8,0.8,29.95,WNW,290,0.0,0.0,87,0.00,CLR,,0.00,WeatherDisplay:10.37,2013-01-04 07:15:00,
2013-01-04 02:20:00,3.7,0.7,29.95,WNW,290,0.0,0.0,87,0.00,BKN,,0.00,WeatherDisplay:10.37,2013-01-04 07:20:00,
2013-01-04 02:25:00,3.8,1.0,29.95,WNW,290,0.0,0.0,88,0.00,BKN,,0.00,WeatherDisplay:10.37,2013-01-04 07:25:00,
2013-01-04 02:30:00,3.8,1.0,29.95,WNW,290,0.0,0.0,88,0.00,BKN,,0.00,WeatherDisplay:10.37,2013-01-04 07:30:00,
2013-01-04 02:35:00,3.9,1.4,29.95,WNW,290,0.0,0.0,89,0.00,BKN,,0.00,WeatherDisplay:10.37,2013-01-04 07:35:00,
2013-01-04 02:40:00,4.1,1.3,29.95,WNW,290,0.0,0.0,88,0.00,BKN,,0.00,WeatherDisplay:10.37,2013-01-04 07:40:00,
2013-01-04 02:45:00,4.2,1.4,29.95,WNW,290,0.0,0.0,88,0.00,BKN,,0.00,WeatherDisplay:10.37,2013-01-04 07:45:00,
2013-01-04 02:50:00,4.2,1.4,29.95,WNW,290,0.0,0.0,88,0.00,BKN,,0.00,WeatherDisplay:10.37,2013-01-04 07:50:00,
2013-01-04 02:55:00,4.2,1.2,29.94,WNW,290,0.0,0.0,87,0.00,BKN,,0.00,WeatherDisplay:10.37,2013-01-04 07:55:00,
2013-01-04 03:00:00,4.1,1.1,29.94,WNW,290,0.0,0.0,87,0.00,BKN,,0.00,WeatherDisplay:10.37,2013-01-04 08:00:00,
2013-01-04 03:05:00,4.1,1.1,29.94,WNW,290,0.0,0.0,87,0.00,CLR,,0.00,WeatherDisplay:10.37,2013-01-04 08:05:00,
2013-01-04 03:10:00,4.1,1.1,29.94,WNW,290,0.0,0.0,87,0.00,CLR,,0.00,WeatherDisplay:10.37,2013-01-04 08:10:00,
2013-01-04 03:15:00,4.0,1.0,29.94,WNW,290,0.0,0.0,87,0.00,CLR,,0.00,WeatherDisplay:10.37,2013-01-04 08:15:00,
2013-01-04 03:20:00,3.9,0.9,29.94,WNW,290,0.0,0.0,87,0.00,CLR,,0.00,WeatherDisplay:10.37,2013-01-04 08:20:00,
2013-01-04 03:25:00,3.9,0.9,29.94,WNW,290,0.0,0.0,87,0.00,CLR,,0.00,WeatherDisplay:10.37,2013-01-04 08:25:00,
2013-01-04 03:35:00,3.8,0.8,29.93,WNW,290,0.0,0.0,87,0.00,CLR,,0.00,WeatherDisplay:10.37,2013-01-04 08:35:00,
2013-01-04 03:40:00,3.7,0.7,29.93,WNW,290,0.0,0.0,87,0.00,CLR,,0.00,WeatherDisplay:10.37,2013-01-04 08:40:00,
2013-01-04 03:45:00,3.7,0.7,29.93,WNW,290,0.0,0.0,87,0.00,CLR,,0.00,WeatherDisplay:10.37,2013-01-04 08:45:00,
2013-01-04 03:50:00,3.7,0.7,29.93,WNW,290,0.0,0.0,87,0.00,CLR,,0.00,WeatherDisplay:10.37,2013-01-04 08:50:00,
2013-01-04 03:55:00,3.7,0.7,29.93,WNW,290,0.0,0.0,87,0.00,CLR,,0.00,WeatherDisplay:10.37,2013-01-04 08:55:00,
2013-01-04 04:00:00,3.7,0.6,29.93,WNW,290,0.0,0.0,87,0.00,CLR,,0.00,WeatherDisplay:10.37,2013-01-04 09:00:00,
2013-01-04 04:05:00,3.5,0.3,29.93,WNW,290,0.0,0.0,86,0.00,CLR,,0.00,WeatherDisplay:10.37,2013-01-04 09:05:00,
2013-01-04 04:10:00,3.5,0.2,29.93,WNW,290,0.0,0.0,86,0.00,CLR,,0.00,WeatherDisplay:10.37,2013-01-04 09:10:00,
2013-01-04 04:15:00,3.3,0.1,29.93,WNW,290,0.0,0.0,86,0.00,CLR,,0.00,WeatherDisplay:10.37,2013-01-04 09:15:00,
2013-01-04 04:20:00,3.3,0.3,29.93,WNW,290,0.0,0.0,87,0.00,CLR,,0.00,WeatherDisplay:10.37,2013-01-04 09:20:00,
2013-01-04 04:25:00,3.3,0.3,29.93,WNW,290,0.0,0.0,87,0.00,CLR,,0.00,WeatherDisplay:10.37,2013-01-04 09:25:00,
2013-01-04 04:30:00,3.2,0.2,29.93,WNW,290,0.0,0.0,87,0.00,CLR,,0.00,WeatherDisplay:10.37,2013-01-04 09:30:00,
2013-01-04 04:35:00,3.2,0.4,29.93,WNW,290,0.0,0.0,88,0.00,CLR,,0.00,WeatherDisplay:10.37,2013-01-04 09:35:00,
2013-01-04 04:40:00,3.2,0.4,29.93,WNW,290,0.0,0.0,88,0.00,CLR,,0.00,WeatherDisplay:10.37,2013-01-04 09:40:00,
2013-01-04 04:45:00,3.2,0.4,29.92,WNW,290,0.0,0.0,88,0.00,CLR,,0.00,WeatherDisplay:10.37,2013-01-04 09:45:00,
2013-01-04 04:50:00,3.2,0.2,29.92,WNW,290,0.0,0.0,87,0.00,CLR,,0.00,WeatherDisplay:10.37,2013-01-04 09:50:00,
2013-01-04 04:55:00,3.1,0.1,29.92,WNW,290,0.0,0.0,87,0.00,CLR,,0.00,WeatherDisplay:10.37,2013-01-04 09:55:00,
2013-01-04 05:00:00,3.0,0.0,29.92,WNW,290,0.0,0.0,87,0.00,CLR,,0.00,WeatherDisplay:10.37,2013-01-04 10:00:00,
2013-01-04 05:05:00,2.9,-0.1,29.92,WNW,290,0.0,0.0,87,0.00,CLR,,0.00,WeatherDisplay:10.37,2013-01-04 10:05:00,
2013-01-04 05:10:00,2.9,-0.1,29.92,WNW,290,0.0,0.0,87,0.00,CLR,,0.00,WeatherDisplay:10.37,2013-01-04 10:10:00,
2013-01-04 05:15:00,2.8,-0.2,29.92,WNW,290,0.0,0.0,87,0.00,CLR,,0.00,WeatherDisplay:10.37,2013-01-04 10:15:00,
2013-01-04 05:20:00,2.8,0.1,29.92,WNW,290,0.0,0.0,88,0.00,CLR,,0.00,WeatherDisplay:10.37,2013-01-04 10:20:00,
2013-01-04 05:25:00,2.8,0.1,29.92,WNW,290,0.0,0.0,88,0.00,CLR,,0.00,WeatherDisplay:10.37,2013-01-04 10:25:00,
2013-01-04 05:30:00,2.7,0.0,29.92,WNW,290,0.0,0.0,88,0.00,CLR,,0.00,WeatherDisplay:10.37,2013-01-04 10:30:00,
2013-01-04 05:35:00,2.7,-0.3,29.92,WNW,290,0.0,0.0,87,0.00,CLR,,0.00,WeatherDisplay:10.37,2013-01-04 10:35:00,
2013-01-04 05:40:00,2.6,-0.4,29.92,WNW,290,0.0,0.0,87,0.00,CLR,,0.00,WeatherDisplay:10.37,2013-01-04 10:40:00,
2013-01-04 05:45:00,2.6,-0.4,29.92,WNW,290,0.0,0.0,87,0.00,CLR,,0.00,WeatherDisplay:10.37,2013-01-04 10:45:00,
2013-01-04 05:50:00,2.6,-0.1,29.92,WNW,290,0.0,0.0,88,0.00,CLR,,0.00,WeatherDisplay:10.37,2013-01-04 10:50:00,
2013-01-04 05:55:00,2.6,-0.1,29.92,WNW,290,0.0,0.0,88,0.00,CLR,,0.00,WeatherDisplay:10.37,2013-01-04 10:55:00,
2013-01-04 06:00:00,2.6,-0.1,29.93,WNW,290,0.0,0.0,88,0.00,CLR,,0.00,WeatherDisplay:10.37,2013-01-04 11:00:00,
2013-01-04 06:05:00,2.6,-0.1,29.93,WNW,290,0.0,0.0,88,0.00,BKN,,0.00,WeatherDisplay:10.37,2013-01-04 11:05:00,
2013-01-04 06:10:00,2.7,0.0,29.93,WNW,290,0.0,0.0,88,0.00,BKN,,0.00,WeatherDisplay:10.37,2013-01-04 11:10:00,
2013-01-04 06:15:00,2.9,0.4,29.93,WNW,290,0.0,0.0,89,0.00,BKN,,0.00,WeatherDisplay:10.37,2013-01-04 11:15:00,
2013-01-04 06:20:00,3.1,0.3,29.93,WNW,290,0.0,0.0,88,0.00,BKN,,0.00,WeatherDisplay:10.37,2013-01-04 11:20:00,
2013-01-04 06:25:00,3.3,0.5,29.93,WNW,290,0.0,0.0,88,0.00,BKN,,0.00,WeatherDisplay:10.37,2013-01-04 11:25:00,
2013-01-04 06:30:00,3.5,0.7,29.93,WNW,290,0.0,0.0,88,0.00,BKN,,0.00,WeatherDisplay:10.37,2013-01-04 11:30:00,
2013-01-04 06:35:00,3.6,0.8,29.94,WNW,290,0.0,0.0,88,0.00,BKN,,0.00,WeatherDisplay:10.37,2013-01-04 11:35:00,
2013-01-04 06:40:00,3.7,0.9,29.94,WNW,290,0.0,0.0,88,0.00,BKN,,0.00,WeatherDisplay:10.37,2013-01-04 11:40:00,
2013-01-04 06:45:00,3.8,1.3,29.94,WNW,290,0.0,0.0,89,0.00,BKN,,0.00,WeatherDisplay:10.37,2013-01-04 11:45:00,
2013-01-04 06:50:00,3.9,1.2,29.94,WNW,290,0.0,0.0,88,0.00,BKN,,0.00,WeatherDisplay:10.37,2013-01-04 11:50:00,
2013-01-04 06:55:00,4.0,1.2,29.94,WNW,290,0.0,0.0,88,0.00,BKN,,0.00,WeatherDisplay:10.37,2013-01-04 11:55:00,
2013-01-04 07:00:00,4.1,1.3,29.94,WNW,290,0.0,0.0,88,0.00,BKN,,0.00,WeatherDisplay:10.37,2013-01-04 12:00:00,
2013-01-04 07:05:00,4.2,1.4,29.94,WNW,290,0.0,0.0,88,0.00,BKN,,0.00,WeatherDisplay:10.37,2013-01-04 12:05:00,
2013-01-04 07:10:00,4.3,1.5,29.94,WNW,290,0.0,0.0,88,0.00,BKN,,0.00,WeatherDisplay:10.37,2013-01-04 12:10:00,
2013-01-04 07:15:00,4.4,1.7,29.94,WNW,290,0.0,0.0,88,0.00,BKN,,0.00,WeatherDisplay:10.37,2013-01-04 12:15:00,
2013-01-04 07:20:00,4.6,1.8,29.94,WNW,290,0.0,0.0,88,0.00,BKN,,0.00,WeatherDisplay:10.37,2013-01-04 12:20:00,
2013-01-04 07:25:00,4.6,1.9,29.94,WNW,290,0.0,0.0,88,0.00,BKN,,0.00,WeatherDisplay:10.37,2013-01-04 12:25:00,
2013-01-04 07:30:00,4.8,2.0,29.94,WNW,290,0.0,0.0,88,0.00,BKN,,0.00,WeatherDisplay:10.37,2013-01-04 12:30:00,
2013-01-04 07:35:00,5.1,2.5,29.94,WNW,290,0.0,0.0,89,0.00,BKN,,0.00,WeatherDisplay:10.37,2013-01-04 12:35:00,
2013-01-04 07:40:00,5.3,2.8,29.94,WNW,290,0.0,0.0,89,0.00,BKN,,0.00,WeatherDisplay:10.37,2013-01-04 12:40:00,
2013-01-04 07:45:00,5.7,3.2,29.94,WNW,290,0.0,0.0,89,0.00,BKN,,0.00,WeatherDisplay:10.37,2013-01-04 12:45:00,
2013-01-04 07:50:00,6.1,3.8,29.94,WNW,290,0.0,0.0,90,0.00,BKN,,0.00,WeatherDisplay:10.37,2013-01-04 12:50:00,
2013-01-04 08:00:00,7.1,4.8,29.94,WNW,290,0.0,0.0,90,0.00,BKN,,0.00,WeatherDisplay:10.37,2013-01-04 13:00:00,
2013-01-04 08:05:00,7.7,5.6,29.93,WNW,290,0.0,0.0,91,0.00,BKN,,0.00,WeatherDisplay:10.37,2013-01-04 13:05:00,
2013-01-04 08:10:00,8.2,6.1,29.93,WNW,290,0.0,0.0,91,0.00,BKN,,0.00,WeatherDisplay:10.37,2013-01-04 13:10:00,
2013-01-04 08:15:00,8.7,6.6,29.93,WNW,290,0.0,0.0,91,0.00,BKN,,0.00,WeatherDisplay:10.37,2013-01-04 13:15:00,
2013-01-04 08:20:00,9.2,7.1,29.93,WNW,290,0.0,0.0,91,0.00,OVC,,0.00,WeatherDisplay:10.37,2013-01-04 13:20:00,
2013-01-04 08:25:00,9.8,7.7,29.93,WNW,290,0.0,0.0,91,0.00,OVC,,0.00,WeatherDisplay:10.37,2013-01-04 13:25:00,
2013-01-04 08:30:00,10.5,8.6,29.93,NW,304,0.0,0.0,92,0.00,OVC,,0.00,WeatherDisplay:10.37,2013-01-04 13:30:00,
2013-01-04 08:40:00,12.0,10.1,29.92,NNE,31,0.0,0.0,92,0.00,OVC,,0.00,WeatherDisplay:10.37,2013-01-04 13:40:00,
2013-01-04 08:45:00,12.7,11.1,29.92,NNE,31,0.0,0.0,93,0.00,OVC,,0.00,WeatherDisplay:10.37,2013-01-04 13:45:00,
2013-01-04 08:50:00,13.7,12.0,29.92,NNE,31,0.0,0.0,93,0.00,OVC,,0.00,WeatherDisplay:10.37,2013-01-04 13:50:00,
2013-01-04 08:55:00,14.7,13.2,29.92,NE,46,0.0,0.0,94,0.00,OVC,,0.00,WeatherDisplay:10.37,2013-01-04 13:55:00,
2013-01-04 09:00:00,15.9,14.5,29.92,ENE,59,0.0,0.0,94,0.00,OVC,,0.00,WeatherDisplay:10.37,2013-01-04 14:00:00,
2013-01-04 09:05:00,17.0,15.5,29.92,ENE,59,0.0,0.0,94,0.00,OVC,,0.00,WeatherDisplay:10.37,2013-01-04 14:05:00,
2013-01-04 09:10:00,17.9,16.5,29.92,ENE,59,0.0,0.0,94,0.00,OVC,,0.00,WeatherDisplay:10.37,2013-01-04 14:10:00,
2013-01-04 09:15:00,19.0,17.5,29.91,ESE,106,0.0,3.0,94,0.00,OVC,,0.00,WeatherDisplay:10.37,2013-01-04 14:15:00,
2013-01-04 09:20:00,20.1,18.7,29.91,South,181,0.0,1.0,94,0.00,OVC,,0.00,WeatherDisplay:10.37,2013-01-04 14:20:00,
2013-01-04 09:25:00,21.2,19.5,29.91,South,183,0.0,0.0,93,0.00,OVC,,0.00,WeatherDisplay:10.37,2013-01-04 14:25:00,
2013-01-04 09:30:00,22.1,19.9,29.91,South,172,0.0,0.0,91,0.00,OVC,,0.00,WeatherDisplay:10.37,2013-01-04 14:30:00,
2013-01-04 09:35:00,23.0,20.5,29.91,South,170,0.0,3.0,90,0.00,OVC,,0.00,WeatherDisplay:10.37,2013-01-04 14:35:00,
2013-01-04 09:40:00,23.8,20.8,29.91,South,175,0.0,1.0,88,0.00,OVC,,0.00,WeatherDisplay:10.37,2013-01-04 14:40:00,
2013-01-04 09:45:00,24.6,21.0,29.91,SE,144,0.0,0.0,86,0.00,OVC,,0.00,WeatherDisplay:10.37,2013-01-04 14:45:00,
2013-01-04 09:50:00,25.2,21.4,29.91,ESE,113,0.0,0.0,85,0.00,OVC,,0.00,WeatherDisplay:10.37,2013-01-04 14:50:00,
2013-01-04 09:55:00,25.7,21.6,29.90,ESE,117,0.0,0.0,84,0.00,OVC,,0.00,WeatherDisplay:10.37,2013-01-04 14:55:00,
2013-01-04 10:05:00,26.7,22.0,29.90,South,184,0.0,0.0,82,0.00,BKN,,0.00,WeatherDisplay:10.37,2013-01-04 15:05:00,
2013-01-04 10:10:00,27.2,22.5,29.90,South,190,0.0,2.0,82,0.00,BKN,,0.00,WeatherDisplay:10.37,2013-01-04 15:10:00,
2013-01-04 10:15:00,27.6,22.6,29.90,South,188,0.0,0.0,81,0.00,BKN,,0.00,WeatherDisplay:10.37,2013-01-04 15:15:00,
2013-01-04 10:20:00,28.1,22.7,29.90,South,186,0.0,5.0,80,0.00,BKN,,0.00,WeatherDisplay:10.37,2013-01-04 15:20:00,
2013-01-04 10:30:00,28.7,22.7,29.89,SSE,168,0.0,1.0,78,0.00,BKN,,0.00,WeatherDisplay:10.37,2013-01-04 15:30:00,
2013-01-04 10:35:00,28.9,22.9,29.89,South,173,0.0,1.0,78,0.00,BKN,,0.00,WeatherDisplay:10.37,2013-01-04 15:35:00,
2013-01-04 10:40:00,29.2,22.8,29.89,South,184,1.0,5.0,77,0.00,BKN,,0.00,WeatherDisplay:10.37,2013-01-04 15:40:00,
2013-01-04 10:45:00,29.4,22.8,29.88,South,183,1.0,4.0,76,0.00,BKN,,0.00,WeatherDisplay:10.37,2013-01-04 15:45:00,
2013-01-04 10:50:00,29.8,22.8,29.88,South,179,0.0,6.0,75,0.00,BKN,,0.00,WeatherDisplay:10.37,2013-01-04 15:50:00,
2013-01-04 10:55:00,30.1,23.1,29.87,SSW,196,1.0,4.0,75,0.00,BKN,,0.00,WeatherDisplay:10.37,2013-01-04 15:55:00,
2013-01-04 11:00:00,30.5,23.2,29.87,SSW,203,1.0,4.0,74,0.00,BKN,,0.00,WeatherDisplay:10.37,2013-01-04 16:00:00,
2013-01-04 11:05:00,30.8,23.2,29.87,SSW,196,0.0,4.0,73,0.00,FEW,,0.00,WeatherDisplay:10.37,2013-01-04 16:05:00,
2013-01-04 11:10:00,31.2,23.2,29.86,SSW,206,2.0,5.0,72,0.00,FEW,,0.00,WeatherDisplay:10.37,2013-01-04 16:10:00,
2013-01-04 11:15:00,31.5,23.2,29.86,SSW,205,1.0,5.0,71,0.00,FEW,,0.00,WeatherDisplay:10.37,2013-01-04 16:15:00,
2013-01-04 11:20:00,31.7,23.4,29.86,SSW,203,0.0,4.0,71,0.00,FEW,,0.00,WeatherDisplay:10.37,2013-01-04 16:20:00,
2013-01-04 11:25:00,31.9,22.9,29.85,SSW,204,1.0,3.0,69,0.00,FEW,,0.00,WeatherDisplay:10.37,2013-01-04 16:25:00,
2013-01-04 11:30:00,32.0,23.0,29.85,SSW,195,0.0,3.0,69,0.00,FEW,,0.00,WeatherDisplay:10.37,2013-01-04 16:30:00,
2013-01-04 11:40:00,32.2,23.2,29.84,SSW,194,0.0,3.0,69,0.00,FEW,,0.00,WeatherDisplay:10.37,2013-01-04 16:40:00,
2013-01-04 11:45:00,32.3,23.6,29.84,SW,214,0.0,0.0,70,0.00,FEW,,0.00,WeatherDisplay:10.37,2013-01-04 16:45:00,
2013-01-04 11:50:00,32.5,23.4,29.83,SSW,200,0.0,2.0,69,0.00,FEW,,0.00,WeatherDisplay:10.37,2013-01-04 16:50:00,
2013-01-04 11:55:00,32.6,23.2,29.83,SSW,204,0.0,2.0,68,0.00,FEW,,0.00,WeatherDisplay:10.37,2013-01-04 16:55:00,
2013-01-04 12:00:00,32.9,23.1,29.83,SW,217,0.0,2.0,67,0.00,FEW,,0.00,WeatherDisplay:10.37,2013-01-04 17:00:00,
2013-01-04 12:05:00,33.2,24.5,29.82,SSW,207,0.0,0.0,70,0.00,FEW,,0.00,WeatherDisplay:10.37,2013-01-04 17:05:00,
2013-01-04 12:10:00,33.5,23.7,29.82,SSW,193,1.0,4.0,67,0.00,FEW,,0.00,WeatherDisplay:10.37,2013-01-04 17:10:00,
2013-01-04 12:15:00,33.7,23.5,29.81,South,173,0.0,3.0,66,0.00,FEW,,0.00,WeatherDisplay:10.37,2013-01-04 17:15:00,
2013-01-04 12:20:00,34.0,24.5,29.81,South,178,0.0,2.0,68,0.00,FEW,,0.00,WeatherDisplay:10.37,2013-01-04 17:20:00,
2013-01-04 12:25:00,34.2,24.4,29.81,SW,216,0.0,0.0,67,0.00,FEW,,0.00,WeatherDisplay:10.37,2013-01-04 17:25:00,
2013-01-04 12:30:00,34.4,23.8,29.81,SW,217,2.0,6.0,65,0.00,FEW,,0.00,WeatherDisplay:10.37,2013-01-04 17:30:00,
2013-01-04 12:35:00,34.8,23.5,29.80,SW,227,0.0,4.0,63,0.00,FEW,,0.00,WeatherDisplay:10.37,2013-01-04 17:35:00,
2013-01-04 12:45:00,35.5,24.1,29.79,South,185,0.0,3.0,63,0.00,FEW,,0.00,WeatherDisplay:10.37,2013-01-04 17:45:00,
2013-01-04 12:50:00,35.7,23.6,29.79,SSW,192,0.0,5.0,61,0.00,FEW,,0.00,WeatherDisplay:10.37,2013-01-04 17:50:00,
2013-01-04 12:55:00,36.1,23.9,29.79,SW,229,2.0,6.0,61,0.00,FEW,,0.00,WeatherDisplay:10.37,2013-01-04 17:55:00,
2013-01-04 13:00:00,36.3,23.7,29.79,WSW,239,0.0,4.0,60,0.00,FEW,,0.00,WeatherDisplay:10.37,2013-01-04 18:00:00,
2013-01-04 13:05:00,36.4,23.4,29.78,SSW,200,0.0,8.0,59,0.00,FEW,,0.00,WeatherDisplay:10.37,2013-01-04 18:05:00,
2013-01-04 13:10:00,36.6,23.6,29.78,South,189,1.0,6.0,59,0.00,FEW,,0.00,WeatherDisplay:10.37,2013-01-04 18:10:00,
2013-01-04 13:15:00,36.7,24.1,29.78,SSW,201,0.0,4.0,60,0.00,FEW,,0.00,WeatherDisplay:10.37,2013-01-04 18:15:00,
2013-01-04 13:20:00,36.8,24.2,29.78,WSW,253,0.0,3.0,60,0.00,SCT,,0.00,WeatherDisplay:10.37,2013-01-04 18:20:00,
2013-01-04 13:25:00,36.6,23.2,29.78,SW,226,1.0,7.0,58,0.00,SCT,,0.00,WeatherDisplay:10.37,2013-01-04 18:25:00,
2013-01-04 13:30:00,36.5,23.1,29.78,SSW,204,2.0,9.0,58,0.00,SCT,,0.00,WeatherDisplay:10.37,2013-01-04 18:30:00,
2013-01-04 13:35:00,36.4,23.8,29.78,SSW,200,1.0,5.0,60,0.00,SCT,,0.00,WeatherDisplay:10.37,2013-01-04 18:35:00,
2013-01-04 13:40:00,36.3,23.3,29.78,SW,225,0.0,6.0,59,0.00,SCT,,0.00,WeatherDisplay:10.37,2013-01-04 18:40:00,
2013-01-04 13:45:00,36.3,23.3,29.78,SW,228,0.0,3.0,59,0.00,SCT,,0.00,WeatherDisplay:10.37,2013-01-04 18:45:00,
2013-01-04 13:50:00,36.3,24.1,29.78,SW,217,0.0,3.0,61,0.00,SCT,,0.00,WeatherDisplay:10.37,2013-01-04 18:50:00,
2013-01-04 13:55:00,36.2,23.6,29.78,SW,217,2.0,5.0,60,0.00,SCT,,0.00,WeatherDisplay:10.37,2013-01-04 18:55:00,
2013-01-04 14:00:00,36.2,23.2,29.78,SW,233,2.0,6.0,59,0.00,SCT,,0.00,WeatherDisplay:10.37,2013-01-04 19:00:00,
2013-01-04 14:05:00,36.1,23.5,29.78,SW,228,1.0,6.0,60,0.00,SCT,,0.00,WeatherDisplay:10.37,2013-01-04 19:05:00,
2013-01-04 14:10:00,36.2,24.0,29.78,SW,217,1.0,4.0,61,0.00,SCT,,0.00,WeatherDisplay:10.37,2013-01-04 19:10:00,
2013-01-04 14:15:00,36.2,24.4,29.78,SW,231,0.0,2.0,62,0.00,SCT,,0.00,WeatherDisplay:10.37,2013-01-04 19:15:00,
2013-01-04 14:20:00,36.2,24.4,29.78,SW,227,1.0,6.0,62,0.00,SCT,,0.00,WeatherDisplay:10.37,2013-01-04 19:20:00,
2013-01-04 14:25:00,36.3,23.3,29.78,SSW,198,1.0,5.0,59,0.00,SCT,,0.00,WeatherDisplay:10.37,2013-01-04 19:25:00,
2013-01-04 14:30:00,36.3,23.7,29.78,SSW,201,0.0,3.0,60,0.00,SCT,,0.00,WeatherDisplay:10.37,2013-01-04 19:30:00,
2013-01-04 14:35:00,36.3,23.7,29.78,SW,222,0.0,3.0,60,0.00,SCT,,0.00,WeatherDisplay:10.37,2013-01-04 19:35:00,
2013-01-04 14:40:00,36.3,24.5,29.78,SSW,210,0.0,3.0,62,0.00,SCT,,0.00,WeatherDisplay:10.37,2013-01-04 19:40:00,
2013-01-04 14:45:00,36.2,24.0,29.78,SSW,213,0.0,3.0,61,0.00,SCT,,0.00,WeatherDisplay:10.37,2013-01-04 19:45:00,
2013-01-04 14:50:00,36.1,23.9,29.78,SW,216,0.0,3.0,61,0.00,SCT,,0.00,WeatherDisplay:10.37,2013-01-04 19:50:00,
2013-01-04 14:55:00,36.0,24.2,29.79,SSW,192,0.0,2.0,62,0.00,SCT,,0.00,WeatherDisplay:10.37,2013-01-04 19:55:00,
2013-01-04 15:00:00,36.0,24.2,29.78,South,184,0.0,2.0,62,0.00,SCT,,0.00,WeatherDisplay:10.37,2013-01-04 20:00:00,
2013-01-04 15:05:00,35.9,23.7,29.79,SSW,212,1.0,3.0,61,0.00,CLR,,0.00,WeatherDisplay:10.37,2013-01-04 20:05:00,
2013-01-04 15:10:00,35.8,24.4,29.79,SW,217,0.0,0.0,63,0.00,CLR,,0.00,WeatherDisplay:10.37,2013-01-04 20:10:00,
2013-01-04 15:15:00,35.8,24.4,29.78,SW,232,0.0,0.0,63,0.00,CLR,,0.00,WeatherDisplay:10.37,2013-01-04 20:15:00,
2013-01-04 15:20:00,35.7,23.9,29.78,SW,236,0.0,0.0,62,0.00,CLR,,0.00,WeatherDisplay:10.37,2013-01-04 20:20:00,
2013-01-04 15:25:00,35.6,23.8,29.79,SW,236,0.0,0.0,62,0.00,CLR,,0.00,WeatherDisplay:10.37,2013-01-04 20:25:00,
2013-01-04 15:30:00,35.4,24.0,29.79,SW,236,0.0,0.0,63,0.00,CLR,,0.00,WeatherDisplay:10.37,2013-01-04 20:30:00,
2013-01-04 15:35:00,35.2,23.9,29.79,SW,236,0.0,0.0,63,0.00,CLR,,0.00,WeatherDisplay:10.37,2013-01-04 20:35:00,
2013-01-04 15:40:00,35.1,23.8,29.79,SW,236,0.0,0.0,63,0.00,CLR,,0.00,WeatherDisplay:10.37,2013-01-04 20:40:00,
2013-01-04 15:45:00,34.9,23.9,29.79,SW,230,0.0,1.0,64,0.00,CLR,,0.00,WeatherDisplay:10.37,2013-01-04 20:45:00,
2013-01-04 15:50:00,34.7,24.1,29.79,SSW,195,0.0,1.0,65,0.00,CLR,,0.00,WeatherDisplay:10.37,2013-01-04 20:50:00,
2013-01-04 15:55:00,34.6,24.0,29.79,SSE,167,0.0,0.0,65,0.00,CLR,,0.00,WeatherDisplay:10.37,2013-01-04 20:55:00,
2013-01-04 16:00:00,34.4,23.8,29.79,SSE,167,0.0,0.0,65,0.00,CLR,,0.00,WeatherDisplay:10.37,2013-01-04 21:00:00,
2013-01-04 16:05:00,34.3,23.7,29.79,SSE,167,0.0,0.0,65,0.00,FEW,,0.00,WeatherDisplay:10.37,2013-01-04 21:05:00,
2013-01-04 16:10:00,34.1,24.3,29.79,SSE,167,0.0,0.0,67,0.00,FEW,,0.00,WeatherDisplay:10.37,2013-01-04 21:10:00,
2013-01-04 16:15:00,33.8,24.4,29.79,SSE,167,0.0,0.0,68,0.00,FEW,,0.00,WeatherDisplay:10.37,2013-01-04 21:15:00,
2013-01-04 16:20:00,33.6,24.5,29.79,SSE,167,0.0,0.0,69,0.00,FEW,,0.00,WeatherDisplay:10.37,2013-01-04 21:20:00,
2013-01-04 16:25:00,33.3,24.9,29.79,SSE,168,0.0,2.0,71,0.00,FEW,,0.00,WeatherDisplay:10.37,2013-01-04 21:25:00,
2013-01-04 16:30:00,32.9,24.9,29.79,South,171,0.0,0.0,72,0.00,FEW,,0.00,WeatherDisplay:10.37,2013-01-04 21:30:00,
2013-01-04 16:35:00,32.6,24.6,29.79,South,174,0.0,0.0,72,0.00,FEW,,0.00,WeatherDisplay:10.37,2013-01-04 21:35:00,
2013-01-04 16:40:00,32.3,24.6,29.79,South,174,0.0,0.0,73,0.00,FEW,,0.00,WeatherDisplay:10.37,2013-01-04 21:40:00,
2013-01-04 16:45:00,31.9,24.9,29.79,South,174,0.0,0.0,75,0.00,FEW,,0.00,WeatherDisplay:10.37,2013-01-04 21:45:00,
2013-01-04 16:50:00,31.6,24.6,29.79,South,174,0.0,0.0,75,0.00,FEW,,0.00,WeatherDisplay:10.37,2013-01-04 21:50:00,
2013-01-04 16:55:00,31.4,24.7,29.79,South,174,0.0,0.0,76,0.00,FEW,,0.00,WeatherDisplay:10.37,2013-01-04 21:55:00,
2013-01-04 17:05:00,30.8,24.5,29.79,South,174,0.0,0.0,77,0.00,FEW,,0.00,WeatherDisplay:10.37,2013-01-04 22:05:00,
2013-01-04 17:10:00,30.6,24.2,29.79,South,174,0.0,0.0,77,0.00,FEW,,0.00,WeatherDisplay:10.37,2013-01-04 22:10:00,
2013-01-04 17:15:00,30.4,24.4,29.80,South,174,0.0,0.0,78,0.00,FEW,,0.00,WeatherDisplay:10.37,2013-01-04 22:15:00,
2013-01-04 17:25:00,30.1,23.8,29.80,South,174,0.0,0.0,77,0.00,FEW,,0.00,WeatherDisplay:10.37,2013-01-04 22:25:00,
2013-01-04 17:30:00,30.0,24.0,29.80,South,174,0.0,0.0,78,0.00,FEW,,0.00,WeatherDisplay:10.37,2013-01-04 22:30:00,
2013-01-04 17:35:00,30.0,24.3,29.80,South,174,0.0,0.0,79,0.00,FEW,,0.00,WeatherDisplay:10.37,2013-01-04 22:35:00,
2013-01-04 17:40:00,29.9,24.2,29.80,South,174,0.0,0.0,79,0.00,FEW,,0.00,WeatherDisplay:10.37,2013-01-04 22:40:00,
2013-01-04 17:45:00,29.9,24.5,29.80,South,174,0.0,0.0,80,0.00,FEW,,0.00,WeatherDisplay:10.37,2013-01-04 22:45:00,
2013-01-04 17:50:00,29.8,24.1,29.80,South,174,0.0,0.0,79,0.00,FEW,,0.00,WeatherDisplay:10.37,2013-01-04 22:50:00,
2013-01-04 17:55:00,29.8,25.3,29.80,South,174,0.0,0.0,83,0.00,FEW,,0.00,WeatherDisplay:10.37,2013-01-04 22:55:00,
2013-01-04 18:00:00,29.8,24.6,29.80,South,174,0.0,0.0,81,0.00,FEW,,0.00,WeatherDisplay:10.37,2013-01-04 23:00:00,
2013-01-04 18:05:00,29.8,24.7,29.80,South,174,0.0,0.0,81,0.00,FEW,,0.00,WeatherDisplay:10.37,2013-01-04 23:05:00,
2013-01-04 18:10:00,29.8,24.7,29.80,South,174,0.0,0.0,81,0.00,FEW,,0.00,WeatherDisplay:10.37,2013-01-04 23:10:00,
2013-01-04 18:15:00,29.8,24.7,29.80,SSE,158,0.0,0.0,81,0.00,FEW,,0.00,WeatherDisplay:10.37,2013-01-04 23:15:00,
2013-01-04 18:25:00,29.8,25.0,29.81,SSE,155,0.0,0.0,82,0.00,OVC,,0.00,WeatherDisplay:10.37,2013-01-04 23:25:00,
2013-01-04 18:30:00,29.9,25.4,29.81,SSE,155,0.0,0.0,83,0.00,OVC,,0.00,WeatherDisplay:10.37,2013-01-04 23:30:00,
2013-01-04 18:35:00,29.9,25.1,29.81,SE,144,0.0,0.0,82,0.00,OVC,,0.00,WeatherDisplay:10.37,2013-01-04 23:35:00,
2013-01-04 18:40:00,30.0,24.9,29.81,SSE,148,0.0,0.0,81,0.00,OVC,,0.00,WeatherDisplay:10.37,2013-01-04 23:40:00,
2013-01-04 18:45:00,30.1,24.7,29.81,South,183,0.0,0.0,80,0.00,OVC,,0.00,WeatherDisplay:10.37,2013-01-04 23:45:00,
2013-01-04 18:50:00,30.4,24.3,29.81,South,182,0.0,0.0,78,0.00,OVC,,0.00,WeatherDisplay:10.37,2013-01-04 23:50:00,
2013-01-04 18:55:00,30.6,24.3,29.81,SSE,159,0.0,0.0,77,0.00,OVC,,0.00,WeatherDisplay:10.37,2013-01-04 23:55:00,
2013-01-04 19:00:00,30.9,23.9,29.81,ESE,122,0.0,1.0,75,0.00,OVC,,0.00,WeatherDisplay:10.37,2013-01-05 00:00:00,
2013-01-04 19:05:00,31.2,24.5,29.81,ENE,75,0.0,0.0,76,0.00,OVC,,0.00,WeatherDisplay:10.37,2013-01-05 00:05:00,
2013-01-04 19:10:00,31.3,24.0,29.81,NE,53,0.0,0.0,74,0.00,OVC,,0.00,WeatherDisplay:10.37,2013-01-05 00:10:00,
2013-01-04 19:15:00,31.5,24.2,29.81,NNE,21,0.0,0.0,74,0.00,OVC,,0.00,WeatherDisplay:10.37,2013-01-05 00:15:00,
2013-01-04 19:20:00,31.6,24.2,29.80,SE,128,0.0,0.0,74,0.00,BKN,,0.00,WeatherDisplay:10.37,2013-01-05 00:20:00,
2013-01-04 19:25:00,31.5,23.8,29.80,South,189,0.0,0.0,73,0.00,BKN,,0.00,WeatherDisplay:10.37,2013-01-05 00:25:00,
2013-01-04 19:30:00,31.4,23.8,29.80,South,174,0.0,0.0,73,0.00,BKN,,0.00,WeatherDisplay:10.37,2013-01-05 00:30:00,
2013-01-04 19:35:00,31.3,23.6,29.80,SSE,160,0.0,2.0,73,0.00,BKN,,0.00,WeatherDisplay:10.37,2013-01-05 00:35:00,
2013-01-04 19:40:00,31.1,23.5,29.80,South,183,0.0,2.0,73,0.00,BKN,,0.00,WeatherDisplay:10.37,2013-01-05 00:40:00,
2013-01-04 19:50:00,30.8,23.2,29.81,SSE,155,0.0,0.0,73,0.00,BKN,,0.00,WeatherDisplay:10.37,2013-01-05 00:50:00,
2013-01-04 19:55:00,30.6,23.6,29.81,SSE,155,0.0,0.0,75,0.00,BKN,,0.00,WeatherDisplay:10.37,2013-01-05 00:55:00,
2013-01-04 20:00:00,30.3,23.3,29.81,SSE,155,0.0,0.0,75,0.00,BKN,,0.00,WeatherDisplay:10.37,2013-01-05 01:00:00,
2013-01-04 20:05:00,30.0,23.4,29.81,SSE,155,0.0,0.0,76,0.00,BKN,,0.00,WeatherDisplay:10.37,2013-01-05 01:05:00,
2013-01-04 20:10:00,29.7,23.4,29.81,SSE,155,0.0,0.0,77,0.00,BKN,,0.00,WeatherDisplay:10.37,2013-01-05 01:10:00,
2013-01-04 20:15:00,29.4,23.4,29.81,SSE,155,0.0,0.0,78,0.00,BKN,,0.00,WeatherDisplay:10.37,2013-01-05 01:15:00,
2013-01-04 20:20:00,29.2,23.5,29.81,SSE,155,0.0,0.0,79,0.00,BKN,,0.00,WeatherDisplay:10.37,2013-01-05 01:20:00,
2013-01-04 20:25:00,29.1,23.7,29.81,SSE,155,0.0,0.0,80,0.00,BKN,,0.00,WeatherDisplay:10.37,2013-01-05 01:25:00,
2013-01-04 20:30:00,29.0,23.9,29.81,SSE,155,0.0,0.0,81,0.00,BKN,,0.00,WeatherDisplay:10.37,2013-01-05 01:30:00,
2013-01-04 20:35:00,29.0,24.2,29.81,SSE,155,0.0,0.0,82,0.00,BKN,,0.00,WeatherDisplay:10.37,2013-01-05 01:35:00,
2013-01-04 20:40:00,29.0,24.2,29.81,SSE,155,0.0,0.0,82,0.00,BKN,,0.00,WeatherDisplay:10.37,2013-01-05 01:40:00,
2013-01-04 20:45:00,28.9,24.4,29.81,SSE,155,0.0,0.0,83,0.00,BKN,,0.00,WeatherDisplay:10.37,2013-01-05 01:45:00,
2013-01-04 20:50:00,29.0,24.2,29.81,SSE,155,0.0,0.0,82,0.00,BKN,,0.00,WeatherDisplay:10.37,2013-01-05 01:50:00,
2013-01-04 20:55:00,29.2,24.1,29.81,SSE,155,0.0,0.0,81,0.00,BKN,,0.00,WeatherDisplay:10.37,2013-01-05 01:55:00,
2013-01-04 21:00:00,29.4,24.3,29.81,SSE,155,0.0,3.0,81,0.00,BKN,,0.00,WeatherDisplay:10.37,2013-01-05 02:00:00,
2013-01-04 21:05:00,29.6,24.2,29.81,SSE,147,0.0,0.0,80,0.00,OVC,,0.00,WeatherDisplay:10.37,2013-01-05 02:05:00,
2013-01-04 21:10:00,29.8,24.4,29.81,SE,141,0.0,0.0,80,0.00,OVC,,0.00,WeatherDisplay:10.37,2013-01-05 02:10:00,
2013-01-04 21:15:00,29.9,24.2,29.81,SE,146,0.0,4.0,79,0.00,OVC,,0.00,WeatherDisplay:10.37,2013-01-05 02:15:00,
2013-01-04 21:20:00,30.0,24.0,29.81,SSE,154,0.0,0.0,78,0.00,OVC,,0.00,WeatherDisplay:10.37,2013-01-05 02:20:00,
2013-01-04 21:25:00,30.2,23.9,29.81,SSE,155,0.0,3.0,77,0.00,OVC,,0.00,WeatherDisplay:10.37,2013-01-05 02:25:00,
2013-01-04 21:30:00,30.4,24.1,29.81,South,176,0.0,3.0,77,0.00,OVC,,0.00,WeatherDisplay:10.37,2013-01-05 02:30:00,
2013-01-04 21:35:00,30.5,24.5,29.81,West,274,0.0,0.0,78,0.00,OVC,,0.00,WeatherDisplay:10.37,2013-01-05 02:35:00,
2013-01-04 21:40:00,30.5,24.1,29.81,WNW,302,0.0,0.0,77,0.00,OVC,,0.00,WeatherDisplay:10.37,2013-01-05 02:40:00,
2013-01-04 21:45:00,30.5,24.1,29.81,NNE,16,0.0,0.0,77,0.00,OVC,,0.00,WeatherDisplay:10.37,2013-01-05 02:45:00,
2013-01-04 21:50:00,30.5,23.5,29.81,East,95,0.0,0.0,75,0.00,OVC,,0.00,WeatherDisplay:10.37,2013-01-05 02:50:00,
2013-01-04 21:55:00,30.6,24.2,29.81,SSE,155,2.0,4.0,77,0.00,OVC,,0.00,WeatherDisplay:10.37,2013-01-05 02:55:00,
2013-01-04 22:00:00,30.7,24.3,29.81,SSW,201,0.0,0.0,77,0.00,OVC,,0.00,WeatherDisplay:10.37,2013-01-05 03:00:00,
2013-01-04 22:05:00,30.7,24.4,29.81,South,174,0.0,0.0,77,0.00,OVC,,0.00,WeatherDisplay:10.37,2013-01-05 03:05:00,
2013-01-04 22:10:00,30.8,24.1,29.81,South,191,2.0,6.0,76,0.00,OVC,,0.00,WeatherDisplay:10.37,2013-01-05 03:10:00,
2013-01-04 22:15:00,31.1,24.1,29.81,WSW,237,0.0,0.0,75,0.00,OVC,,0.00,WeatherDisplay:10.37,2013-01-05 03:15:00,
2013-01-04 22:20:00,31.3,24.3,29.81,West,263,0.0,5.0,75,0.00,OVC,,0.00,WeatherDisplay:10.37,2013-01-05 03:20:00,
2013-01-04 22:25:00,31.5,24.5,29.81,SSE,148,0.0,0.0,75,0.00,OVC,,0.00,WeatherDisplay:10.37,2013-01-05 03:25:00,
2013-01-04 22:30:00,32.2,23.2,29.81,WNW,303,5.0,14.0,69,0.00,OVC,,0.00,WeatherDisplay:10.37,2013-01-05 03:30:00,
2013-01-04 22:35:00,33.0,23.9,29.81,WNW,283,2.0,6.0,69,0.00,OVC,,0.00,WeatherDisplay:10.37,2013-01-05 03:35:00,
2013-01-04 22:45:00,33.5,23.4,29.81,West,278,2.0,9.0,66,0.00,OVC,,0.00,WeatherDisplay:10.37,2013-01-05 03:45:00,
2013-01-04 22:50:00,33.7,23.2,29.80,WSW,255,1.0,9.0,65,0.00,OVC,,0.00,WeatherDisplay:10.37,2013-01-05 03:50:00,
2013-01-04 22:55:00,33.8,23.3,29.80,WSW,243,2.0,5.0,65,0.00,OVC,,0.00,WeatherDisplay:10.37,2013-01-05 03:55:00,
2013-01-04 23:00:00,33.9,23.0,29.80,WSW,238,2.0,7.0,64,0.00,OVC,,0.00,WeatherDisplay:10.37,2013-01-05 04:00:00,
2013-01-04 23:05:00,33.9,23.0,29.80,SW,223,2.0,12.0,64,0.00,BKN,,0.00,WeatherDisplay:10.37,2013-01-05 04:05:00,
2013-01-04 23:10:00,33.9,23.0,29.80,WSW,247,3.0,17.0,64,0.00,BKN,,0.00,WeatherDisplay:10.37,2013-01-05 04:10:00,
2013-01-04 23:15:00,33.9,23.0,29.80,West,268,1.0,3.0,64,0.00,BKN,,0.00,WeatherDisplay:10.37,2013-01-05 04:15:00,
2013-01-04 23:20:00,33.8,22.5,29.80,WSW,237,3.0,8.0,63,0.00,BKN,,0.00,WeatherDisplay:10.37,2013-01-05 04:20:00,
2013-01-04 23:25:00,33.8,22.9,29.80,SW,236,1.0,4.0,64,0.00,BKN,,0.00,WeatherDisplay:10.37,2013-01-05 04:25:00,
2013-01-04 23:30:00,33.7,22.8,29.80,WSW,249,5.0,8.0,64,0.00,BKN,,0.00,WeatherDisplay:10.37,2013-01-05 04:30:00,
2013-01-04 23:35:00,33.9,23.0,29.80,West,263,1.0,10.0,64,0.00,BKN,,0.00,WeatherDisplay:10.37,2013-01-05 04:35:00,
2013-01-04 23:40:00,34.0,22.7,29.80,WSW,237,1.0,7.0,63,0.00,BKN,,0.00,WeatherDisplay:10.37,2013-01-05 04:40:00,
2013-01-04 23:45:00,34.0,22.7,29.80,West,274,1.0,13.0,63,0.00,BKN,,0.00,WeatherDisplay:10.37,2013-01-05 04:45:00,
2013-01-04 23:55:00,34.0,22.7,29.80,SW,230,2.0,9.0,63,0.00,BKN,,0.00,WeatherDisplay:10.37,2013-01-05 04:55:00,